This is the latest recevied weather packets stored in our database for station/object N7CEE-2. If no packets are shown the sender has not sent any weather packets the latest 10 day(s).
| Time | Temp. | Humidity | Pressure | Rain* | Wind** | Luminosity | Snow |
|---|---|---|---|---|---|---|---|
| 1777304675 | 20° C | 32% | 1016.3 hPa | 0 mm | - | 489 W/m² | - |
| 1777304373 | 19.44° C | 33% | 1016.5 hPa | 0 mm | - | 497 W/m² | - |
| 1777304069 | 20° C | 33% | 1016.3 hPa | 0 mm | - | 448 W/m² | - |
| 1777303766 | 18.89° C | 33% | 1016.3 hPa | 0 mm | - | 427 W/m² | - |
| 1777303463 | 18.89° C | 34% | 1016.3 hPa | 0 mm | - | 410 W/m² | - |
| 1777303161 | 18.89° C | 34% | 1016.3 hPa | 0 mm | - | 389 W/m² | - |
| 1777302860 | 18.89° C | 35% | 1016.4 hPa | 0 mm | - | 370 W/m² | - |
| 1777302556 | 18.33° C | 36% | 1016.3 hPa | 0 mm | - | 348 W/m² | - |
| 1777302254 | 18.33° C | 36% | 1016.4 hPa | 0 mm | - | 332 W/m² | - |
| 1777301951 | 17.78° C | 35% | 1016.4 hPa | 0 mm | - | 309 W/m² | - |
| 1777301649 | 17.78° C | 36% | 1016.4 hPa | 0 mm | - | 287 W/m² | - |
| 1777301346 | 17.78° C | 37% | 1016.4 hPa | 0 mm | - | 270 W/m² | - |
| 1777301042 | 17.22° C | 37% | 1016.4 hPa | 0 mm | - | 247 W/m² | - |
| 1777300740 | 17.22° C | 37% | 1016.3 hPa | 0 mm | - | 225 W/m² | - |
| 1777300438 | 17.22° C | 38% | 1016.3 hPa | 0 mm | - | 205 W/m² | - |
| 1777300135 | 16.67° C | 38% | 1016.3 hPa | 0 mm | - | 189 W/m² | - |
| 1777299831 | 16.67° C | 39% | 1016.2 hPa | 0 mm | - | 171 W/m² | - |
| 1777299529 | 16.67° C | 40% | 1016.2 hPa | 0 mm | - | 154 W/m² | - |
| 1777299226 | 16.11° C | 40% | 1016 hPa | 0 mm | - | 137 W/m² | - |
| 1777298923 | 16.11° C | 41% | 1016 hPa | 0 mm | - | 124 W/m² | - |
| 1777298621 | 15.56° C | 42% | 1016.1 hPa | 0 mm | - | 110 W/m² | - |
| 1777298317 | 15.56° C | 43% | 1016 hPa | 0 mm | - | 97 W/m² | - |
| 1777298012 | 15.56° C | 43% | 1016 hPa | 0 mm | - | 84 W/m² | - |
| 1777297708 | 15° C | 44% | 1015.9 hPa | 0 mm | - | 74 W/m² | - |
| 1777297406 | 15° C | 46% | 1015.9 hPa | 0 mm | - | 62 W/m² | - |
* Rain latest hour (hover to see other rain measurements)
** Current wind speed in m/s (hover to see current wind gust speed)